Time;durP1;ratioP1;P1;durP2;ratioP2;P2;SDS_P1;SDS_P2;PMS_P1;PMS_P2;Temp;Humidity;BMP_temperature;BMP_pressure;BME280_temperature;BME280_humidity;BME280_pressure;Samples;Min_cycle;Max_cycle;Signal;HPM_P1;HPM_P2
2022/06/04 00:01:43;;;;;;;17.58;6.50;;;;;;;;;;5015337;28;20100;-62
2022/06/04 00:04:11;;;;;;;18.77;7.10;;;;;;;;;;5025007;28;20049;-63
2022/06/04 00:06:37;;;;;;;25.10;7.53;;;;;;;;;;5015036;28;20037;-63
2022/06/04 00:09:05;;;;;;;29.30;7.95;;;;;;;;;;5028360;28;20112;-62
2022/06/04 00:17:01;;;;;;;20.42;7.05;;;;;;;;;;5020923;28;20038;-63
2022/06/04 00:19:27;;;;;;;17.48;5.80;;;;;;;;;;5021440;28;20041;-62
2022/06/04 00:21:53;;;;;;;21.92;6.60;;;;;;;;;;5029928;28;20030;-63
2022/06/04 00:24:19;;;;;;;26.45;6.05;;;;;;;;;;5053838;28;20048;-62
2022/06/04 00:26:45;;;;;;;16.02;5.75;;;;;;;;;;5054867;28;20021;-63
2022/06/04 00:29:12;;;;;;;25.52;6.28;;;;;;;;;;5056230;28;20032;-63
2022/06/04 00:31:38;;;;;;;27.92;5.93;;;;;;;;;;5061538;28;20033;-63
2022/06/04 00:34:05;;;;;;;19.55;4.70;;;;;;;;;;5054212;28;20043;-63
2022/06/04 00:36:32;;;;;;;24.70;5.57;;;;;;;;;;5054658;28;20057;-63
2022/06/04 00:38:59;;;;;;;28.95;4.43;;;;;;;;;;5054623;28;20044;-63
2022/06/04 00:41:41;;;;;;;28.05;4.72;;;;;;;;;;5054202;28;20078;-63
2022/06/04 00:44:10;;;;;;;26.55;6.10;;;;;;;;;;5054338;28;20029;-62
2022/06/04 00:46:42;;;;;;;29.58;5.57;;;;;;;;;;5054257;28;20028;-63
2022/06/04 00:49:11;;;;;;;23.95;5.10;;;;;;;;;;5054326;28;20481;-62
2022/06/04 00:51:37;;;;;;;29.58;5.05;;;;;;;;;;5054498;28;20488;-62
2022/06/04 00:54:04;;;;;;;28.27;6.00;;;;;;;;;;5054417;28;20045;-62
2022/06/04 00:56:48;;;;;;;24.55;4.47;;;;;;;;;;5054100;28;20119;-62
2022/06/04 00:59:18;;;;;;;22.35;4.88;;;;;;;;;;5062606;28;20068;-62
2022/06/04 01:01:53;;;;;;;24.50;4.68;;;;;;;;;;5050140;28;20045;-62
2022/06/04 01:07:22;;;;;;;32.08;5.43;;;;;;;;;;5050075;28;20036;-63
2022/06/04 01:09:51;;;;;;;30.02;5.13;;;;;;;;;;5054048;28;20033;-63
2022/06/04 01:12:17;;;;;;;28.08;5.03;;;;;;;;;;5053556;28;20033;-62
2022/06/04 01:14:43;;;;;;;26.58;4.88;;;;;;;;;;5055567;28;20630;-63
2022/06/04 01:17:18;;;;;;;35.15;5.22;;;;;;;;;;5065000;28;20405;-62
2022/06/04 01:19:53;;;;;;;30.00;5.45;;;;;;;;;;5054266;28;20043;-62
2022/06/04 01:22:19;;;;;;;34.65;5.30;;;;;;;;;;5053986;28;20036;-63
2022/06/04 01:24:50;;;;;;;30.63;6.20;;;;;;;;;;5054233;28;20108;-62
2022/06/04 01:27:23;;;;;;;32.00;5.60;;;;;;;;;;5054239;28;20021;-62
2022/06/04 01:30:08;;;;;;;28.05;5.60;;;;;;;;;;5053439;28;20524;-63
2022/06/04 01:32:44;;;;;;;31.55;5.93;;;;;;;;;;5060927;28;20379;-62
2022/06/04 01:35:14;;;;;;;25.35;5.80;;;;;;;;;;5073959;28;20028;-62
2022/06/04 01:37:44;;;;;;;29.70;5.63;;;;;;;;;;5065958;28;20385;-62
2022/06/04 01:42:58;;;;;;;28.52;6.13;;;;;;;;;;5039703;28;20032;-62
2022/06/04 01:45:26;;;;;;;28.35;6.43;;;;;;;;;;5052584;28;20048;-63
2022/06/04 01:47:53;;;;;;;36.33;6.70;;;;;;;;;;5059710;28;20048;-62
2022/06/04 01:50:21;;;;;;;27.88;5.65;;;;;;;;;;5054373;28;20032;-63
2022/06/04 01:52:48;;;;;;;26.63;6.00;;;;;;;;;;5037918;28;20095;-63
2022/06/04 01:55:31;;;;;;;22.25;5.80;;;;;;;;;;5053003;28;20032;-62
2022/06/04 01:58:05;;;;;;;33.17;7.63;;;;;;;;;;5052603;28;20065;-62
2022/06/04 02:00:32;;;;;;;22.27;6.45;;;;;;;;;;5035827;28;20099;-62
2022/06/04 02:03:04;;;;;;;21.85;6.38;;;;;;;;;;5053235;28;20017;-63
2022/06/04 02:05:33;;;;;;;20.43;6.53;;;;;;;;;;5052726;28;20078;-63
2022/06/04 02:08:00;;;;;;;28.73;6.28;;;;;;;;;;5052942;28;20638;-62
2022/06/04 02:10:31;;;;;;;21.27;7.43;;;;;;;;;;5054110;28;20397;-62
2022/06/04 02:12:59;;;;;;;23.33;6.18;;;;;;;;;;5052929;28;20044;-63
2022/06/04 02:15:31;;;;;;;26.67;6.38;;;;;;;;;;5056309;28;20492;-62
2022/06/04 02:17:58;;;;;;;33.63;7.75;;;;;;;;;;5058843;28;20144;-63
2022/06/04 02:20:25;;;;;;;23.38;7.18;;;;;;;;;;5052477;28;20493;-62
2022/06/04 02:22:51;;;;;;;41.10;9.20;;;;;;;;;;5052791;28;20021;-62
2022/06/04 02:25:17;;;;;;;25.58;7.75;;;;;;;;;;5052658;28;20032;-62
2022/06/04 02:27:44;;;;;;;27.00;8.63;;;;;;;;;;5052670;28;20473;-63
2022/06/04 02:30:12;;;;;;;25.25;8.13;;;;;;;;;;5052372;28;20033;-63
2022/06/04 02:32:46;;;;;;;25.08;7.88;;;;;;;;;;5052075;28;20029;-63
2022/06/04 02:35:16;;;;;;;35.22;9.57;;;;;;;;;;5052631;28;20539;-63
2022/06/04 02:37:45;;;;;;;26.88;9.88;;;;;;;;;;5052312;28;20064;-62
2022/06/04 02:40:11;;;;;;;26.70;9.70;;;;;;;;;;5052386;28;20055;-62
2022/06/04 02:42:47;;;;;;;21.00;9.13;;;;;;;;;;5050848;28;20016;-63
2022/06/04 02:45:16;;;;;;;29.08;9.75;;;;;;;;;;5039527;28;20017;-62
2022/06/04 02:47:48;;;;;;;20.38;9.95;;;;;;;;;;5052052;28;20467;-63
2022/06/04 02:50:20;;;;;;;27.38;12.43;;;;;;;;;;5052547;28;20405;-62
2022/06/04 02:52:46;;;;;;;25.75;11.73;;;;;;;;;;5051883;28;20071;-62
2022/06/04 02:55:17;;;;;;;25.13;12.70;;;;;;;;;;5052171;28;20485;-63
2022/06/04 02:57:46;;;;;;;33.13;12.43;;;;;;;;;;5051440;28;20086;-62
2022/06/04 03:00:14;;;;;;;30.40;13.23;;;;;;;;;;5051871;28;20035;-63
2022/06/04 03:02:40;;;;;;;28.38;13.23;;;;;;;;;;5051608;28;20025;-62
2022/06/04 03:05:08;;;;;;;33.72;13.82;;;;;;;;;;5052263;28;20028;-62
2022/06/04 03:07:34;;;;;;;33.15;13.50;;;;;;;;;;5051890;28;20079;-63
2022/06/04 03:10:07;;;;;;;35.97;15.65;;;;;;;;;;5054890;28;20481;-63
2022/06/04 03:12:33;;;;;;;29.17;13.95;;;;;;;;;;5066656;28;20120;-62
2022/06/04 03:14:59;;;;;;;30.75;14.88;;;;;;;;;;5051894;28;20035;-63
2022/06/04 03:17:26;;;;;;;27.67;14.73;;;;;;;;;;5052039;28;20029;-63
2022/06/04 03:19:53;;;;;;;40.75;15.60;;;;;;;;;;5051781;28;20033;-63
2022/06/04 03:22:19;;;;;;;39.08;16.33;;;;;;;;;;5052031;28;20068;-63
2022/06/04 03:24:45;;;;;;;34.80;15.50;;;;;;;;;;5051156;28;20059;-62
2022/06/04 03:27:11;;;;;;;29.33;13.10;;;;;;;;;;5051519;28;20408;-63
2022/06/04 03:29:37;;;;;;;31.65;14.98;;;;;;;;;;5051681;28;20044;-63
2022/06/04 03:32:03;;;;;;;33.58;15.60;;;;;;;;;;5063582;28;20031;-63
2022/06/04 03:34:29;;;;;;;31.73;13.70;;;;;;;;;;5055372;28;20029;-63
2022/06/04 03:36:55;;;;;;;26.90;14.82;;;;;;;;;;5050811;28;20021;-63
2022/06/04 03:39:22;;;;;;;33.40;14.50;;;;;;;;;;5050876;28;20036;-62
2022/06/04 03:41:48;;;;;;;25.00;14.88;;;;;;;;;;5051025;28;20025;-63
2022/06/04 03:44:14;;;;;;;33.83;14.43;;;;;;;;;;5051461;28;20523;-62
2022/06/04 03:46:40;;;;;;;39.75;15.13;;;;;;;;;;5049817;28;20021;-63
2022/06/04 03:49:06;;;;;;;35.35;14.73;;;;;;;;;;5035865;28;20056;-63
2022/06/04 03:51:33;;;;;;;29.42;14.63;;;;;;;;;;5043620;28;20040;-63
2022/06/04 03:53:59;;;;;;;39.22;13.77;;;;;;;;;;5046335;28;20029;-63
2022/06/04 03:56:25;;;;;;;27.52;14.48;;;;;;;;;;5058226;28;20032;-62
2022/06/04 03:58:52;;;;;;;26.02;13.68;;;;;;;;;;5054595;28;20041;-63
2022/06/04 04:01:23;;;;;;;27.38;13.70;;;;;;;;;;5049733;28;20500;-63
2022/06/04 04:03:49;;;;;;;23.35;12.77;;;;;;;;;;5059872;28;20120;-63
2022/06/04 04:06:18;;;;;;;26.25;14.52;;;;;;;;;;5050007;28;20393;-63
2022/06/04 04:08:45;;;;;;;27.98;13.75;;;;;;;;;;5055234;28;20028;-63
2022/06/04 04:11:15;;;;;;;28.40;14.40;;;;;;;;;;5061531;28;20059;-62
2022/06/04 04:13:42;;;;;;;28.25;13.82;;;;;;;;;;5054559;28;20025;-63
2022/06/04 04:16:09;;;;;;;27.67;13.38;;;;;;;;;;5053943;28;20138;-63
2022/06/04 04:18:35;;;;;;;32.13;15.10;;;;;;;;;;5050847;28;20071;-63
2022/06/04 04:21:06;;;;;;;25.23;13.75;;;;;;;;;;5054041;28;20033;-63
2022/06/04 04:23:32;;;;;;;31.85;15.00;;;;;;;;;;5060372;28;20021;-63
2022/06/04 04:25:58;;;;;;;36.17;14.10;;;;;;;;;;5057455;28;20358;-62
2022/06/04 04:28:24;;;;;;;29.63;13.80;;;;;;;;;;5054669;28;20058;-62
2022/06/04 04:30:50;;;;;;;33.63;13.82;;;;;;;;;;5054166;28;20051;-62
2022/06/04 04:33:16;;;;;;;33.80;14.52;;;;;;;;;;5056218;28;20481;-63
2022/06/04 04:35:43;;;;;;;30.23;14.20;;;;;;;;;;5058305;28;20033;-63
2022/06/04 04:38:11;;;;;;;23.90;14.15;;;;;;;;;;5053203;28;20033;-63
2022/06/04 04:40:37;;;;;;;28.23;14.13;;;;;;;;;;5052011;28;20518;-62
2022/06/04 04:43:04;;;;;;;34.78;15.48;;;;;;;;;;5054590;28;20047;-63
2022/06/04 04:45:30;;;;;;;29.75;15.10;;;;;;;;;;5067876;28;20453;-63
2022/06/04 04:47:56;;;;;;;37.22;15.15;;;;;;;;;;5055617;28;20036;-63
2022/06/04 04:50:24;;;;;;;37.10;14.68;;;;;;;;;;5057533;28;20079;-62
2022/06/04 04:52:51;;;;;;;27.98;14.35;;;;;;;;;;5057287;28;20025;-63
2022/06/04 04:55:17;;;;;;;30.45;14.68;;;;;;;;;;5072421;28;20500;-63
2022/06/04 04:57:43;;;;;;;32.55;14.25;;;;;;;;;;5050056;28;20029;-62
2022/06/04 05:00:10;;;;;;;26.10;13.35;;;;;;;;;;5045533;28;20037;-63
2022/06/04 05:02:36;;;;;;;25.05;14.57;;;;;;;;;;5051459;28;20064;-63
2022/06/04 05:05:02;;;;;;;36.35;15.18;;;;;;;;;;5052298;28;20025;-62
2022/06/04 05:07:28;;;;;;;31.50;14.13;;;;;;;;;;5049253;28;20378;-63
2022/06/04 05:09:55;;;;;;;27.33;13.95;;;;;;;;;;5053410;28;20037;-62
2022/06/04 05:12:21;;;;;;;37.60;15.98;;;;;;;;;;5052185;28;20120;-62
2022/06/04 05:14:47;;;;;;;34.25;16.35;;;;;;;;;;5053093;28;20104;-62
2022/06/04 05:17:13;;;;;;;29.10;14.98;;;;;;;;;;5052641;28;20040;-62
2022/06/04 05:19:39;;;;;;;32.92;16.27;;;;;;;;;;5053048;28;20075;-63
2022/06/04 05:22:06;;;;;;;30.27;15.50;;;;;;;;;;5052033;28;20064;-63
2022/06/04 05:24:33;;;;;;;33.17;15.73;;;;;;;;;;5050039;28;20032;-63
2022/06/04 05:27:02;;;;;;;31.33;16.52;;;;;;;;;;5052450;28;20104;-63
2022/06/04 05:29:29;;;;;;;37.17;16.15;;;;;;;;;;5051567;28;20033;-63
2022/06/04 05:31:57;;;;;;;35.10;16.55;;;;;;;;;;5047467;28;20025;-63
2022/06/04 05:34:23;;;;;;;38.63;15.93;;;;;;;;;;5039559;28;20186;-66
2022/06/04 05:36:51;;;;;;;29.42;15.80;;;;;;;;;;5033986;28;20036;-67
2022/06/04 05:39:18;;;;;;;28.42;15.57;;;;;;;;;;5041386;28;20482;-67
2022/06/04 05:41:44;;;;;;;37.50;17.50;;;;;;;;;;5039265;28;20032;-68
2022/06/04 05:44:10;;;;;;;34.20;17.40;;;;;;;;;;5037570;28;20079;-67
2022/06/04 05:46:37;;;;;;;35.03;16.20;;;;;;;;;;5034270;28;20089;-68
2022/06/04 05:49:03;;;;;;;29.45;15.65;;;;;;;;;;5041143;28;20037;-68
2022/06/04 05:51:30;;;;;;;35.17;16.85;;;;;;;;;;5038055;28;20504;-67
2022/06/04 05:53:57;;;;;;;30.73;17.17;;;;;;;;;;5037221;28;20386;-63
2022/06/04 05:56:25;;;;;;;32.60;16.25;;;;;;;;;;5035503;28;20032;-63
2022/06/04 05:58:52;;;;;;;33.55;15.80;;;;;;;;;;5031575;28;20091;-63
2022/06/04 06:01:19;;;;;;;31.50;17.27;;;;;;;;;;5033678;28;20029;-63
2022/06/04 06:03:45;;;;;;;37.35;17.83;;;;;;;;;;5034520;28;20086;-63
2022/06/04 06:06:13;;;;;;;31.58;16.80;;;;;;;;;;5032603;28;20029;-63
2022/06/04 06:08:39;;;;;;;31.27;17.05;;;;;;;;;;5038825;28;20020;-63
2022/06/04 06:11:09;;;;;;;38.80;17.80;;;;;;;;;;5035414;28;20116;-63
2022/06/04 06:13:35;;;;;;;37.28;17.25;;;;;;;;;;5035423;28;20021;-63
2022/06/04 06:16:06;;;;;;;31.33;17.92;;;;;;;;;;5032000;28;20079;-63
2022/06/04 06:18:33;;;;;;;38.97;17.48;;;;;;;;;;5037098;28;20032;-63
2022/06/04 06:20:59;;;;;;;30.50;16.58;;;;;;;;;;5042208;28;20738;-63
2022/06/04 06:23:25;;;;;;;31.08;17.15;;;;;;;;;;5050378;28;20041;-63
2022/06/04 06:25:51;;;;;;;35.85;17.23;;;;;;;;;;5052428;28;20025;-63
2022/06/04 06:28:17;;;;;;;28.70;16.80;;;;;;;;;;5051722;28;20025;-63
2022/06/04 06:30:44;;;;;;;33.47;17.70;;;;;;;;;;5050385;28;20078;-64
2022/06/04 06:33:10;;;;;;;37.13;17.73;;;;;;;;;;5049368;28;20025;-63
2022/06/04 06:35:36;;;;;;;31.55;17.00;;;;;;;;;;5050096;28;20116;-64
2022/06/04 06:38:02;;;;;;;37.92;17.13;;;;;;;;;;5052921;28;20485;-64
2022/06/04 06:40:29;;;;;;;38.45;16.25;;;;;;;;;;5058184;28;20032;-64
2022/06/04 06:42:55;;;;;;;39.72;17.98;;;;;;;;;;5050059;28;20021;-64
2022/06/04 06:45:21;;;;;;;34.08;16.65;;;;;;;;;;5049969;28;20074;-64
2022/06/04 06:47:47;;;;;;;32.42;16.85;;;;;;;;;;5048031;28;20021;-64
2022/06/04 06:50:14;;;;;;;31.25;17.08;;;;;;;;;;5050463;28;20041;-63
2022/06/04 06:52:40;;;;;;;34.17;16.90;;;;;;;;;;5049149;28;20032;-66
2022/06/04 06:55:07;;;;;;;32.92;15.77;;;;;;;;;;5043126;28;20036;-63
2022/06/04 06:57:33;;;;;;;32.97;16.77;;;;;;;;;;5040106;28;20044;-63
2022/06/04 06:59:59;;;;;;;39.42;17.60;;;;;;;;;;5041937;28;20104;-63
2022/06/04 07:02:25;;;;;;;34.45;16.77;;;;;;;;;;5042626;28;20471;-63
2022/06/04 07:04:51;;;;;;;33.90;17.90;;;;;;;;;;5072640;28;20450;-63
2022/06/04 07:07:17;;;;;;;31.95;16.98;;;;;;;;;;5046644;28;20033;-64
2022/06/04 07:09:44;;;;;;;29.23;16.42;;;;;;;;;;5045101;28;20431;-63
2022/06/04 07:12:11;;;;;;;36.17;15.88;;;;;;;;;;5043204;28;20021;-63
2022/06/04 07:14:37;;;;;;;33.38;16.45;;;;;;;;;;5044447;28;20084;-64
2022/06/04 07:17:05;;;;;;;35.45;17.20;;;;;;;;;;5041130;28;20028;-64
2022/06/04 07:19:32;;;;;;;33.10;14.90;;;;;;;;;;5041702;28;20091;-63
2022/06/04 07:21:58;;;;;;;33.80;15.25;;;;;;;;;;5040279;28;20025;-64
2022/06/04 07:24:24;;;;;;;32.92;16.25;;;;;;;;;;5038277;28;20041;-63
2022/06/04 07:26:51;;;;;;;26.98;15.40;;;;;;;;;;5036801;28;20025;-64
2022/06/04 07:29:17;;;;;;;24.50;15.38;;;;;;;;;;5043791;28;20032;-62
2022/06/04 07:31:43;;;;;;;29.92;15.25;;;;;;;;;;5043181;28;20028;-62
2022/06/04 07:34:10;;;;;;;25.65;14.38;;;;;;;;;;5038427;28;20029;-62
2022/06/04 07:36:44;;;;;;;25.42;13.50;;;;;;;;;;5040593;28;20037;-62
2022/06/04 07:39:12;;;;;;;32.58;15.13;;;;;;;;;;5039762;28;20453;-62
2022/06/04 07:41:43;;;;;;;25.20;13.65;;;;;;;;;;5038124;28;20075;-62
2022/06/04 07:44:09;;;;;;;28.17;14.90;;;;;;;;;;5042158;28;20124;-62
2022/06/04 07:46:36;;;;;;;27.20;14.15;;;;;;;;;;5044062;28;20084;-62
2022/06/04 07:49:03;;;;;;;21.35;12.88;;;;;;;;;;5044959;28;20025;-62
2022/06/04 07:51:30;;;;;;;26.73;13.68;;;;;;;;;;5051922;28;20033;-62
2022/06/04 07:53:56;;;;;;;26.00;14.65;;;;;;;;;;5052008;28;20535;-62
2022/06/04 07:56:23;;;;;;;29.10;14.88;;;;;;;;;;5047404;28;21003;-62
2022/06/04 07:58:49;;;;;;;31.33;15.82;;;;;;;;;;5043828;28;20037;-62
2022/06/04 08:01:17;;;;;;;28.52;14.95;;;;;;;;;;5046784;28;20017;-62
2022/06/04 08:03:44;;;;;;;27.52;14.70;;;;;;;;;;5045671;28;20088;-62
2022/06/04 08:06:10;;;;;;;34.42;15.57;;;;;;;;;;5043758;28;20160;-62
2022/06/04 08:08:37;;;;;;;25.83;14.93;;;;;;;;;;5053616;28;20066;-62
2022/06/04 08:11:30;;;;;;;26.20;14.73;;;;;;;;;;5054549;28;20025;-62
2022/06/04 08:13:50;;;;;;;27.90;14.80;;;;;;;;;;5047859;28;20039;-62
2022/06/04 08:16:16;;;;;;;26.80;14.32;;;;;;;;;;5051399;28;20436;-62
2022/06/04 08:18:42;;;;;;;25.80;14.18;;;;;;;;;;5042023;28;20036;-63
2022/06/04 08:21:09;;;;;;;21.33;14.57;;;;;;;;;;5053225;28;20393;-62
2022/06/04 08:23:35;;;;;;;28.40;15.27;;;;;;;;;;5048780;28;20497;-62
2022/06/04 08:26:02;;;;;;;26.40;14.82;;;;;;;;;;5051563;28;20413;-63
2022/06/04 08:28:28;;;;;;;25.77;14.75;;;;;;;;;;5050283;28;20057;-62
2022/06/04 08:31:02;;;;;;;29.90;13.90;;;;;;;;;;5050868;28;20526;-63
2022/06/04 08:33:28;;;;;;;20.75;12.77;;;;;;;;;;5044784;28;20045;-63
2022/06/04 08:35:54;;;;;;;23.13;13.43;;;;;;;;;;5046470;28;20029;-63
2022/06/04 08:38:21;;;;;;;21.13;12.57;;;;;;;;;;5053043;28;20465;-63
2022/06/04 08:40:49;;;;;;;24.40;13.13;;;;;;;;;;5040915;28;20068;-63
2022/06/04 08:43:30;;;;;;;23.70;13.70;;;;;;;;;;5048235;28;20503;-63
2022/06/04 08:45:57;;;;;;;28.98;13.10;;;;;;;;;;5046152;28;20405;-63
2022/06/04 08:48:28;;;;;;;20.33;12.65;;;;;;;;;;5050662;28;20010;-63
2022/06/04 08:50:54;;;;;;;21.73;12.70;;;;;;;;;;5049173;28;20101;-63
2022/06/04 08:53:24;;;;;;;20.20;12.35;;;;;;;;;;5054037;28;20027;-62
2022/06/04 08:58:48;;;;;;;20.02;11.63;;;;;;;;;;5044692;28;20383;-63
2022/06/04 09:01:22;;;;;;;19.63;11.38;;;;;;;;;;5047382;28;20037;-64
2022/06/04 09:03:58;;;;;;;24.58;11.15;;;;;;;;;;5055373;28;20021;-64
2022/06/04 09:06:24;;;;;;;19.48;10.95;;;;;;;;;;5056691;28;20036;-64
2022/06/04 09:08:50;;;;;;;20.52;12.40;;;;;;;;;;5049196;28;20027;-64
2022/06/04 09:11:19;;;;;;;16.67;10.63;;;;;;;;;;5043826;28;20126;-64
2022/06/04 09:13:50;;;;;;;16.70;10.73;;;;;;;;;;5039028;28;20076;-63
2022/06/04 09:16:20;;;;;;;20.98;10.43;;;;;;;;;;5038173;28;20029;-64
2022/06/04 09:18:49;;;;;;;16.58;10.73;;;;;;;;;;5044319;28;20094;-64
2022/06/04 09:21:15;;;;;;;20.48;11.93;;;;;;;;;;5047318;28;20071;-64
2022/06/04 09:23:44;;;;;;;13.88;10.40;;;;;;;;;;5040981;28;20029;-63
2022/06/04 09:26:13;;;;;;;20.75;11.65;;;;;;;;;;5052114;28;20025;-63
2022/06/04 09:28:39;;;;;;;15.55;10.65;;;;;;;;;;5035908;28;20554;-64
2022/06/04 09:31:22;;;;;;;13.57;10.50;;;;;;;;;;5040615;28;20040;-64
2022/06/04 09:33:59;;;;;;;21.20;11.57;;;;;;;;;;5042606;28;20390;-63
2022/06/04 09:36:28;;;;;;;17.08;10.50;;;;;;;;;;5049235;28;20039;-64
2022/06/04 09:39:19;;;;;;;15.70;10.68;;;;;;;;;;5045204;28;20033;-63
2022/06/04 09:41:50;;;;;;;14.55;10.40;;;;;;;;;;5046544;28;20077;-64
2022/06/04 09:44:16;;;;;;;15.75;11.80;;;;;;;;;;5044869;28;20029;-63
2022/06/04 09:46:44;;;;;;;19.75;11.98;;;;;;;;;;5046423;28;20029;-63
2022/06/04 09:49:31;;;;;;;17.65;12.00;;;;;;;;;;5042674;28;20467;-64
2022/06/04 09:51:57;;;;;;;14.05;11.02;;;;;;;;;;5048671;28;20044;-64
2022/06/04 09:54:34;;;;;;;18.15;11.45;;;;;;;;;;5051655;28;20024;-64
2022/06/04 09:57:03;;;;;;;16.52;10.90;;;;;;;;;;5056294;28;20474;-64
2022/06/04 09:59:30;;;;;;;21.35;11.25;;;;;;;;;;5049122;28;20119;-64
2022/06/04 10:01:59;;;;;;;19.42;10.60;;;;;;;;;;5038850;28;20094;-64
2022/06/04 10:04:40;;;;;;;14.20;10.45;;;;;;;;;;5041906;28;20030;-64
2022/06/04 10:07:11;;;;;;;19.73;11.63;;;;;;;;;;5046774;28;20028;-63
2022/06/04 10:09:57;;;;;;;17.90;10.77;;;;;;;;;;5053440;28;20071;-63
2022/06/04 10:15:20;;;;;;;12.68;8.63;;;;;;;;;;5045364;28;20032;-63
2022/06/04 10:17:46;;;;;;;11.80;8.38;;;;;;;;;;5053072;28;20090;-63
2022/06/04 10:20:20;;;;;;;11.65;8.35;;;;;;;;;;5046086;28;20017;-64
2022/06/04 10:22:49;;;;;;;12.85;8.95;;;;;;;;;;5046475;28;20025;-63
2022/06/04 10:25:34;;;;;;;15.68;8.38;;;;;;;;;;5045534;28;20082;-64
2022/06/04 10:28:00;;;;;;;10.73;8.05;;;;;;;;;;5041140;28;20025;-64
2022/06/04 10:30:30;;;;;;;13.80;6.93;;;;;;;;;;5043940;28;20501;-63
2022/06/04 10:32:56;;;;;;;9.18;6.65;;;;;;;;;;5048778;28;20111;-63
2022/06/04 10:35:30;;;;;;;11.50;6.25;;;;;;;;;;5047458;28;20521;-63
2022/06/04 10:38:12;;;;;;;9.82;5.97;;;;;;;;;;5034835;28;20041;-64
2022/06/04 10:40:56;;;;;;;11.27;5.82;;;;;;;;;;5037986;28;20063;-63
2022/06/04 10:43:35;;;;;;;9.20;6.55;;;;;;;;;;5037594;28;20045;-64
2022/06/04 10:46:17;;;;;;;11.75;6.18;;;;;;;;;;5050211;28;20513;-64
2022/06/04 10:48:43;;;;;;;11.23;5.90;;;;;;;;;;5044853;28;20055;-64
2022/06/04 10:51:26;;;;;;;6.53;5.18;;;;;;;;;;5041549;28;20554;-63
2022/06/04 10:54:08;;;;;;;11.73;7.10;;;;;;;;;;5038702;28;20060;-63
2022/06/04 10:56:40;;;;;;;12.57;8.30;;;;;;;;;;5040224;28;20433;-63
2022/06/04 10:59:19;;;;;;;14.95;8.15;;;;;;;;;;5043026;28;20724;-63
2022/06/04 11:02:01;;;;;;;14.82;8.57;;;;;;;;;;5045051;28;20048;-63
2022/06/04 11:04:37;;;;;;;13.77;8.45;;;;;;;;;;5039969;28;20033;-62
2022/06/04 11:07:19;;;;;;;19.52;9.45;;;;;;;;;;5043826;28;20039;-63
2022/06/04 11:09:45;;;;;;;;;;;;;;;;;;5043635;28;20040;-62
2022/06/04 11:12:18;;;;;;;13.85;9.35;;;;;;;;;;5040577;28;19913;-62
2022/06/04 11:14:49;;;;;;;15.98;7.90;;;;;;;;;;5043041;28;20284;-62
2022/06/04 11:17:15;;;;;;;13.73;9.38;;;;;;;;;;5044414;28;20033;-62
2022/06/04 11:20:02;;;;;;;15.63;9.57;;;;;;;;;;5040235;28;20175;-62
2022/06/04 11:22:31;;;;;;;11.20;8.15;;;;;;;;;;5035162;28;20477;-62
2022/06/04 11:25:24;;;;;;;11.95;9.02;;;;;;;;;;5040573;28;20025;-62
2022/06/04 11:28:01;;;;;;;13.15;9.73;;;;;;;;;;5041208;28;20583;-62
2022/06/04 11:30:30;;;;;;;12.25;9.02;;;;;;;;;;5056222;28;20044;-62
2022/06/04 11:32:56;;;;;;;11.07;8.65;;;;;;;;;;5050786;28;20129;-62
2022/06/04 11:35:44;;;;;;;19.75;8.43;;;;;;;;;;5050835;28;20024;-62
2022/06/04 11:38:10;;;;;;;16.77;8.77;;;;;;;;;;5050467;28;20025;-62
2022/06/04 11:40:39;;;;;;;15.50;8.70;;;;;;;;;;5049967;28;20392;-62
2022/06/04 11:43:05;;;;;;;18.17;8.60;;;;;;;;;;5049341;28;20374;-63
2022/06/04 11:45:41;;;;;;;8.63;7.10;;;;;;;;;;5049494;28;20029;-62
2022/06/04 11:48:16;;;;;;;15.13;8.43;;;;;;;;;;5060463;28;20074;-62
2022/06/04 11:50:51;;;;;;;14.07;8.93;;;;;;;;;;5055250;28;20028;-62
2022/06/04 11:53:40;;;;;;;15.18;7.93;;;;;;;;;;5047050;28;20025;-62
2022/06/04 11:56:09;;;;;;;12.30;7.05;;;;;;;;;;5045992;28;20029;-62
2022/06/04 11:58:47;;;;;;;16.60;8.50;;;;;;;;;;5050115;28;20190;-62
2022/06/04 12:01:16;;;;;;;13.15;7.25;;;;;;;;;;5053683;28;20033;-62
2022/06/04 12:03:49;;;;;;;12.65;7.78;;;;;;;;;;5050077;28;20044;-62
2022/06/04 12:06:18;;;;;;;14.93;8.25;;;;;;;;;;5050285;28;20094;-62
2022/06/04 12:08:44;;;;;;;9.65;7.35;;;;;;;;;;5049944;28;20037;-62
2022/06/04 12:11:10;;;;;;;11.65;7.15;;;;;;;;;;5049384;28;20493;-62
2022/06/04 12:13:51;;;;;;;11.00;7.07;;;;;;;;;;5051054;28;20389;-62
2022/06/04 12:16:29;;;;;;;12.05;7.13;;;;;;;;;;5048898;28;20029;-62
2022/06/04 12:18:57;;;;;;;18.15;8.43;;;;;;;;;;5053460;28;20029;-62
2022/06/04 12:24:16;;;;;;;15.85;8.82;;;;;;;;;;5052774;28;20107;-62
2022/06/04 12:26:50;;;;;;;13.40;8.15;;;;;;;;;;5054155;28;20056;-62
2022/06/04 12:29:28;;;;;;;14.80;8.45;;;;;;;;;;5053154;28;20021;-62
2022/06/04 12:31:55;;;;;;;11.70;8.55;;;;;;;;;;5053209;28;20021;-63
2022/06/04 12:34:27;;;;;;;15.88;8.80;;;;;;;;;;5053520;28;20021;-62
2022/06/04 12:36:55;;;;;;;16.50;7.90;;;;;;;;;;5053266;28;20025;-62
2022/06/04 12:39:21;;;;;;;13.93;9.98;;;;;;;;;;5052836;28;20397;-62
2022/06/04 12:41:50;;;;;;;15.77;10.98;;;;;;;;;;5053340;28;20029;-62
2022/06/04 12:44:27;;;;;;;15.05;9.55;;;;;;;;;;5053580;28;20078;-62
2022/06/04 12:46:54;;;;;;;23.15;10.80;;;;;;;;;;5053518;28;20083;-62
2022/06/04 12:49:25;;;;;;;17.40;10.27;;;;;;;;;;5053128;28;20465;-62
2022/06/04 12:51:54;;;;;;;17.40;10.25;;;;;;;;;;5052582;28;20116;-62
2022/06/04 12:54:46;;;;;;;17.20;10.23;;;;;;;;;;5052992;28;20072;-62
2022/06/04 12:57:21;;;;;;;22.45;11.98;;;;;;;;;;5053236;28;20025;-62
2022/06/04 12:59:49;;;;;;;18.75;11.48;;;;;;;;;;5053189;28;20051;-62
2022/06/04 13:02:24;;;;;;;17.52;10.90;;;;;;;;;;5053144;28;20037;-62
2022/06/04 13:04:50;;;;;;;20.90;11.07;;;;;;;;;;5053278;28;20536;-62
2022/06/04 13:07:38;;;;;;;18.23;11.48;;;;;;;;;;5052291;28;20048;-62
2022/06/04 13:10:06;;;;;;;20.23;11.80;;;;;;;;;;5052533;28;20132;-62
2022/06/04 13:12:48;;;;;;;15.85;10.82;;;;;;;;;;5052682;28;20077;-62
2022/06/04 13:15:32;;;;;;;20.65;11.95;;;;;;;;;;5054791;28;20366;-62
2022/06/04 13:17:58;;;;;;;17.70;10.68;;;;;;;;;;5052887;28;20086;-62
2022/06/04 13:20:36;;;;;;;19.30;10.95;;;;;;;;;;5052288;28;20021;-62
2022/06/04 13:23:24;;;;;;;25.05;12.40;;;;;;;;;;5053120;28;20469;-62
2022/06/04 13:25:50;;;;;;;24.02;12.05;;;;;;;;;;5051740;28;20486;-62
2022/06/04 13:28:25;;;;;;;15.30;10.30;;;;;;;;;;5059437;28;20424;-62
2022/06/04 13:30:52;;;;;;;21.27;12.23;;;;;;;;;;5058387;28;20516;-62
2022/06/04 13:33:20;;;;;;;19.65;11.82;;;;;;;;;;5054967;28;20060;-62
2022/06/04 13:35:49;;;;;;;22.00;12.18;;;;;;;;;;5052302;28;20060;-62
2022/06/04 13:38:37;;;;;;;16.70;9.77;;;;;;;;;;5052365;28;20036;-62
2022/06/04 13:41:04;;;;;;;15.75;10.60;;;;;;;;;;5044176;28;20132;-62
2022/06/04 13:43:43;;;;;;;23.33;12.80;;;;;;;;;;5060562;28;20079;-62
2022/06/04 13:46:15;;;;;;;23.33;12.57;;;;;;;;;;5049872;28;20092;-62
2022/06/04 13:48:50;;;;;;;13.82;10.05;;;;;;;;;;5044904;28;20033;-62
2022/06/04 13:51:21;;;;;;;14.77;10.82;;;;;;;;;;5050784;28;20559;-62
2022/06/04 13:53:53;;;;;;;16.35;11.50;;;;;;;;;;5052062;28;20120;-62
2022/06/04 13:56:20;;;;;;;15.68;10.27;;;;;;;;;;5050285;28;20045;-62
2022/06/04 13:58:46;;;;;;;15.90;10.00;;;;;;;;;;5048002;28;20044;-62
2022/06/04 14:01:30;;;;;;;17.15;10.30;;;;;;;;;;5048809;28;20065;-62
2022/06/04 14:06:43;;;;;;;17.10;8.82;;;;;;;;;;5047550;28;20033;-62
2022/06/04 14:09:09;;;;;;;19.52;10.70;;;;;;;;;;5044021;28;20386;-62
2022/06/04 14:11:38;;;;;;;17.48;10.15;;;;;;;;;;5044743;28;20104;-62
2022/06/04 14:14:13;;;;;;;18.85;11.02;;;;;;;;;;5046501;28;20409;-62
2022/06/04 14:16:50;;;;;;;15.68;10.98;;;;;;;;;;5039642;28;20021;-62
2022/06/04 14:19:16;;;;;;;18.38;10.50;;;;;;;;;;5052156;28;20366;-62
2022/06/04 14:21:45;;;;;;;18.95;10.82;;;;;;;;;;5046641;28;20024;-62
2022/06/04 14:24:22;;;;;;;18.92;11.73;;;;;;;;;;5052227;28;20033;-62
2022/06/04 14:26:48;;;;;;;14.65;10.10;;;;;;;;;;5052210;28;20504;-61
2022/06/04 14:29:14;;;;;;;19.67;10.57;;;;;;;;;;5052923;28;20029;-62
2022/06/04 14:31:40;;;;;;;15.93;10.13;;;;;;;;;;5051271;28;20399;-61
2022/06/04 14:34:07;;;;;;;19.67;10.75;;;;;;;;;;5052443;28;20166;-62
2022/06/04 14:36:33;;;;;;;18.73;11.23;;;;;;;;;;5052387;28;20029;-62
2022/06/04 14:39:01;;;;;;;22.88;11.68;;;;;;;;;;5052731;28;20401;-61
2022/06/04 14:41:34;;;;;;;17.20;11.45;;;;;;;;;;5052475;28;20398;-61
2022/06/04 14:44:13;;;;;;;20.02;11.50;;;;;;;;;;5052623;28;20021;-62
2022/06/04 14:46:48;;;;;;;19.30;10.63;;;;;;;;;;5054366;28;20029;-62
2022/06/04 14:49:33;;;;;;;25.95;11.05;;;;;;;;;;5052389;28;20040;-62
2022/06/04 14:52:08;;;;;;;18.40;11.15;;;;;;;;;;5052290;28;20040;-62
2022/06/04 14:54:36;;;;;;;19.38;11.77;;;;;;;;;;5052227;28;20057;-61
2022/06/04 14:57:20;;;;;;;18.02;9.95;;;;;;;;;;5058446;28;20025;-61
2022/06/04 14:59:54;;;;;;;20.90;9.77;;;;;;;;;;5052243;28;20044;-62